Time;durP1;ratioP1;P1;durP2;ratioP2;P2;SDS_P1;SDS_P2;PMS_P1;PMS_P2;Temp;Humidity;BMP_temperature;BMP_pressure;BME280_temperature;BME280_humidity;BME280_pressure;Samples;Min_cycle;Max_cycle;Signal;HPM_P1;HPM_P2
2021/12/06 00:00:50;;;;;;;82.75;39.30;;;3.60;99.90;;;;;;5014638;23;20097;-77
2021/12/06 00:02:53;;;;;;;82.15;39.05;;;3.60;99.90;;;;;;5012163;23;20093;-77
2021/12/06 00:04:54;;;;;;;79.55;37.25;;;3.50;99.90;;;;;;5012848;23;20026;-77
2021/12/06 00:07:00;;;;;;;80.13;40.08;;;3.50;99.90;;;;;;5014451;23;20019;-76
2021/12/06 00:09:07;;;;;;;82.80;37.33;;;3.50;99.90;;;;;;5014026;23;20027;-75
2021/12/06 00:11:09;;;;;;;76.85;38.70;;;3.50;99.90;;;;;;5014920;23;20019;-76
2021/12/06 00:13:10;;;;;;;73.70;39.78;;;3.50;99.90;;;;;;5012823;23;20018;-76
2021/12/06 00:15:12;;;;;;;81.70;41.75;;;3.50;99.90;;;;;;5014368;23;20018;-76
2021/12/06 00:17:15;;;;;;;83.30;39.63;;;3.50;99.90;;;;;;5012921;23;20011;-75
2021/12/06 00:19:16;;;;;;;90.40;40.35;;;3.50;99.90;;;;;;5014562;23;20043;-76
2021/12/06 00:21:17;;;;;;;78.13;38.50;;;3.50;99.90;;;;;;5011897;23;20061;-75
2021/12/06 00:23:18;;;;;;;84.50;41.88;;;3.50;99.90;;;;;;5008177;23;20011;-75
2021/12/06 00:25:19;;;;;;;79.35;39.05;;;3.50;99.90;;;;;;5014737;23;20149;-75
2021/12/06 00:27:20;;;;;;;79.95;39.03;;;3.50;99.90;;;;;;5014816;23;20140;-76
2021/12/06 00:29:21;;;;;;;82.90;41.05;;;3.50;99.90;;;;;;5014794;23;20029;-76
2021/12/06 00:31:21;;;;;;;89.30;41.13;;;3.50;99.90;;;;;;5014305;23;20042;-77
2021/12/06 00:33:23;;;;;;;79.80;39.58;;;3.40;99.90;;;;;;5014581;23;20018;-75
2021/12/06 00:35:24;;;;;;;78.03;38.00;;;3.40;99.90;;;;;;5012653;23;20029;-75
2021/12/06 00:37:35;;;;;;;85.72;41.38;;;3.50;99.90;;;;;;5014508;23;20023;-75
2021/12/06 00:39:35;;;;;;;80.25;38.83;;;3.40;99.90;;;;;;5012662;23;20018;-76
2021/12/06 00:41:36;;;;;;;83.20;39.80;;;3.40;99.90;;;;;;5013026;23;20019;-76
2021/12/06 00:43:36;;;;;;;92.18;41.13;;;3.40;99.90;;;;;;5012324;23;20035;-75
2021/12/06 00:45:37;;;;;;;80.85;39.72;;;3.40;99.90;;;;;;5012953;23;20019;-75
2021/12/06 00:47:38;;;;;;;83.07;40.05;;;3.40;99.90;;;;;;5014256;23;20724;-75
2021/12/06 00:49:39;;;;;;;90.80;42.63;;;3.40;99.90;;;;;;5014751;23;20069;-77
2021/12/06 00:51:40;;;;;;;92.75;39.42;;;3.40;99.90;;;;;;5014156;23;20047;-77
2021/12/06 00:53:42;;;;;;;92.50;41.03;;;3.40;99.90;;;;;;5015107;23;20325;-77
2021/12/06 00:55:43;;;;;;;86.97;41.63;;;3.40;99.90;;;;;;5014838;23;20025;-77
2021/12/06 00:57:44;;;;;;;87.50;40.80;;;3.50;99.90;;;;;;5016474;23;20483;-77
2021/12/06 00:59:45;;;;;;;89.50;42.33;;;3.50;99.90;;;;;;5015452;23;20515;-77
2021/12/06 01:01:46;;;;;;;84.72;41.05;;;3.50;99.90;;;;;;5016525;23;20014;-77
2021/12/06 01:03:46;;;;;;;88.15;40.75;;;3.50;99.90;;;;;;5016035;23;20511;-76
2021/12/06 01:05:48;;;;;;;90.60;41.38;;;3.60;99.90;;;;;;5015834;23;20022;-76
2021/12/06 01:07:50;;;;;;;89.50;38.90;;;3.60;99.90;;;;;;5016525;23;20022;-76
2021/12/06 01:09:51;;;;;;;81.50;39.97;;;3.60;99.90;;;;;;5016411;23;20523;-75
2021/12/06 01:11:51;;;;;;;82.72;39.30;;;3.70;99.90;;;;;;5016709;23;20015;-76
2021/12/06 01:13:52;;;;;;;83.97;39.00;;;3.70;99.90;;;;;;5016080;23;20022;-76
2021/12/06 01:15:54;;;;;;;88.30;38.35;;;3.70;99.90;;;;;;5015905;23;20270;-76
2021/12/06 01:17:56;;;;;;;91.18;39.80;;;3.60;99.90;;;;;;5014157;23;20483;-76
2021/12/06 01:19:56;;;;;;;98.45;40.05;;;3.60;99.90;;;;;;5016356;23;20523;-74
2021/12/06 01:22:16;;;;;;;87.68;40.45;;;3.60;99.90;;;;;;5015756;23;20070;-75
2021/12/06 01:24:20;;;;;;;83.13;37.67;;;3.60;99.90;;;;;;5014055;23;20030;-76
2021/12/06 01:29:01;;;;;;;88.65;39.38;;;3.70;99.90;;;;;;5017938;23;20384;-75
2021/12/06 01:33:28;;;;;;;91.50;40.08;;;3.70;99.90;;;;;;5016248;23;20022;-76
2021/12/06 01:40:01;;;;;;;85.47;38.95;;;3.60;99.90;;;;;;5015853;23;20466;-76
2021/12/06 01:42:04;;;;;;;96.53;40.90;;;3.60;99.90;;;;;;5015723;23;20015;-75
2021/12/06 01:44:06;;;;;;;85.32;42.00;;;3.50;99.90;;;;;;5016269;23;20101;-75
2021/12/06 01:46:07;;;;;;;85.90;37.63;;;3.50;99.90;;;;;;5014728;23;20047;-76
2021/12/06 01:48:08;;;;;;;88.63;38.92;;;3.50;99.90;;;;;;5014828;23;20243;-74
2021/12/06 01:50:17;;;;;;;94.10;40.17;;;3.50;99.90;;;;;;5013912;23;20407;-75
2021/12/06 01:52:31;;;;;;;95.65;36.95;;;3.50;99.90;;;;;;5013927;23;20022;-75
2021/12/06 01:54:32;;;;;;;85.15;35.60;;;3.60;99.90;;;;;;5014368;23;20018;-76
2021/12/06 01:56:33;;;;;;;90.88;40.83;;;3.60;99.90;;;;;;5015635;23;20019;-76
2021/12/06 01:58:34;;;;;;;102.43;40.95;;;3.60;99.90;;;;;;5014568;23;20090;-76
2021/12/06 02:00:48;;;;;;;93.40;41.03;;;3.60;99.90;;;;;;5014142;23;20328;-75
2021/12/06 02:02:48;;;;;;;95.00;42.92;;;3.70;99.90;;;;;;5015869;23;20448;-75
2021/12/06 02:04:50;;;;;;;96.65;40.70;;;3.70;99.90;;;;;;5015505;23;20090;-75
2021/12/06 02:06:50;;;;;;;92.72;41.33;;;3.70;99.90;;;;;;5015617;23;20045;-74
2021/12/06 02:08:52;;;;;;;89.13;38.53;;;3.80;99.90;;;;;;5013726;23;20015;-76
2021/12/06 02:10:59;;;;;;;100.97;43.90;;;3.80;99.90;;;;;;5014769;23;20051;-76
2021/12/06 02:13:00;;;;;;;88.72;40.25;;;3.80;99.90;;;;;;5015535;23;20451;-76
2021/12/06 02:15:14;;;;;;;85.43;40.03;;;3.80;99.90;;;;;;5013582;23;20015;-76
2021/12/06 02:17:21;;;;;;;89.93;39.45;;;3.90;99.90;;;;;;5014517;23;20015;-76
2021/12/06 02:19:29;;;;;;;87.82;38.80;;;3.90;99.90;;;;;;5014358;23;20130;-76
2021/12/06 02:21:36;;;;;;;84.30;37.55;;;3.90;99.90;;;;;;5014277;23;20021;-76
2021/12/06 02:23:36;;;;;;;97.32;39.58;;;3.90;99.90;;;;;;5011419;23;20023;-76
2021/12/06 02:25:37;;;;;;;89.10;38.72;;;3.90;99.90;;;;;;5010155;23;20621;-76
2021/12/06 02:27:38;;;;;;;85.53;38.63;;;3.90;99.90;;;;;;5015032;23;20038;-76
2021/12/06 02:29:41;;;;;;;94.03;41.30;;;3.90;99.90;;;;;;5015115;23;20483;-76
2021/12/06 02:31:41;;;;;;;88.80;40.70;;;3.90;99.90;;;;;;5011328;23;20015;-75
2021/12/06 02:33:45;;;;;;;93.63;41.50;;;3.90;99.90;;;;;;5013932;23;20099;-75
2021/12/06 02:35:45;;;;;;;;;;;3.90;99.90;;;;;;5016342;23;20757;-75
2021/12/06 02:37:47;;;;;;;79.85;36.63;;;3.90;99.90;;;;;;5015575;23;19913;-75
2021/12/06 02:39:49;;;;;;;93.28;40.55;;;3.90;99.90;;;;;;5013569;23;20432;-75
2021/12/06 02:41:52;;;;;;;98.50;42.08;;;3.90;99.90;;;;;;5012425;23;20471;-75
2021/12/06 02:43:54;;;;;;;92.38;42.03;;;3.90;99.90;;;;;;5014099;23;20152;-75
2021/12/06 02:45:54;;;;;;;95.07;40.97;;;3.90;99.90;;;;;;5015247;23;20015;-75
2021/12/06 02:47:58;;;;;;;88.28;41.55;;;3.90;99.90;;;;;;5014626;23;20403;-75
2021/12/06 02:50:06;;;;;;;87.00;39.72;;;3.90;99.90;;;;;;5015807;23;20022;-77
2021/12/06 02:52:08;;;;;;;91.00;41.33;;;3.90;99.90;;;;;;5013895;23;20019;-76
2021/12/06 02:54:10;;;;;;;95.53;41.03;;;3.80;99.90;;;;;;5013496;23;20018;-76
2021/12/06 02:56:30;;;;;;;99.43;39.63;;;3.80;99.90;;;;;;5015058;23;20014;-76
2021/12/06 03:00:35;;;;;;;105.35;41.47;;;3.80;99.90;;;;;;5016482;23;20018;-76
2021/12/06 03:02:36;;;;;;;102.50;44.70;;;3.80;99.90;;;;;;5015051;23;20643;-75
2021/12/06 03:04:38;;;;;;;97.30;40.55;;;3.80;99.90;;;;;;5014721;23;20151;-75
2021/12/06 03:06:40;;;;;;;101.05;42.10;;;3.80;99.90;;;;;;5014755;23;20082;-75
2021/12/06 03:08:48;;;;;;;105.20;42.83;;;3.80;99.90;;;;;;5015549;23;20022;-75
2021/12/06 03:10:48;;;;;;;102.85;40.95;;;3.80;99.90;;;;;;5013431;23;20019;-75
2021/12/06 03:12:49;;;;;;;91.40;38.53;;;3.80;99.90;;;;;;5013317;23;20039;-75
2021/12/06 03:14:54;;;;;;;88.78;38.47;;;3.90;99.90;;;;;;5012700;23;20025;-75
2021/12/06 03:16:58;;;;;;;94.15;41.63;;;4.00;99.90;;;;;;5015373;23;20022;-75
2021/12/06 03:19:00;;;;;;;87.22;38.42;;;4.00;99.90;;;;;;5014133;23;20033;-75
2021/12/06 03:21:01;;;;;;;86.47;36.80;;;4.00;99.90;;;;;;5015177;23;20103;-75
2021/12/06 03:23:03;;;;;;;89.57;39.28;;;4.00;99.90;;;;;;5012777;23;20015;-75
2021/12/06 03:25:13;;;;;;;91.72;41.08;;;4.10;99.90;;;;;;5015650;23;20007;-75
2021/12/06 03:27:15;;;;;;;95.00;38.90;;;4.00;99.90;;;;;;5015282;23;20304;-75
2021/12/06 03:29:16;;;;;;;92.35;42.28;;;4.00;99.90;;;;;;5013797;23;20022;-74
2021/12/06 03:31:18;;;;;;;96.22;42.25;;;4.00;99.90;;;;;;5013812;23;20076;-75
2021/12/06 03:33:18;;;;;;;95.57;41.50;;;4.00;99.90;;;;;;5015379;23;20716;-75
2021/12/06 03:35:19;;;;;;;94.47;42.30;;;4.00;99.90;;;;;;5013172;23;20026;-75
2021/12/06 03:37:20;;;;;;;94.38;41.58;;;4.00;99.90;;;;;;5014063;23;20483;-76
2021/12/06 03:39:28;;;;;;;88.05;39.67;;;4.00;99.90;;;;;;5013164;23;20097;-76
2021/12/06 03:41:29;;;;;;;81.13;38.05;;;4.00;99.90;;;;;;5015008;23;20454;-76
2021/12/06 03:43:31;;;;;;;93.32;41.78;;;4.00;99.90;;;;;;5013098;23;20046;-74
2021/12/06 03:45:35;;;;;;;96.73;41.97;;;4.00;99.90;;;;;;5013520;23;20023;-75
2021/12/06 03:47:36;;;;;;;88.93;39.80;;;4.00;99.90;;;;;;5015496;23;20014;-75
2021/12/06 03:49:37;;;;;;;89.32;42.65;;;4.00;99.90;;;;;;5013053;23;20085;-75
2021/12/06 03:51:38;;;;;;;95.72;41.13;;;3.90;99.90;;;;;;5013110;23;20074;-75
2021/12/06 03:53:39;;;;;;;93.95;40.97;;;4.00;99.90;;;;;;5014324;23;20011;-75
2021/12/06 03:55:40;;;;;;;104.15;43.38;;;4.00;99.90;;;;;;5014684;23;20463;-75
2021/12/06 03:57:41;;;;;;;97.65;43.20;;;4.00;99.90;;;;;;5012597;23;20479;-77
2021/12/06 03:59:42;;;;;;;107.95;43.03;;;4.00;99.90;;;;;;5015104;23;20081;-75
2021/12/06 04:01:43;;;;;;;100.60;42.85;;;3.90;99.90;;;;;;5014577;23;20059;-75
2021/12/06 04:03:44;;;;;;;97.28;44.13;;;3.90;99.90;;;;;;5015575;23;20026;-75
2021/12/06 04:05:45;;;;;;;97.07;43.97;;;3.90;99.90;;;;;;5014519;23;20063;-76
2021/12/06 04:07:46;;;;;;;111.15;44.40;;;3.90;99.90;;;;;;5012615;23;20364;-74
2021/12/06 04:09:47;;;;;;;109.80;45.42;;;3.90;99.90;;;;;;5013025;23;20355;-75
2021/12/06 04:11:48;;;;;;;99.85;42.08;;;3.90;99.90;;;;;;5015026;23;20022;-75
2021/12/06 04:13:50;;;;;;;104.35;41.97;;;3.90;99.90;;;;;;5012843;23;20511;-75
2021/12/06 04:15:50;;;;;;;99.75;44.53;;;3.90;99.90;;;;;;5012973;23;20023;-75
2021/12/06 04:17:51;;;;;;;96.35;42.58;;;3.90;99.90;;;;;;5014555;23;20073;-75
2021/12/06 04:19:52;;;;;;;96.28;44.05;;;3.90;99.90;;;;;;5012974;23;20097;-76
2021/12/06 04:21:54;;;;;;;99.38;42.30;;;3.90;99.90;;;;;;5014543;23;20439;-76
2021/12/06 04:23:55;;;;;;;97.28;42.40;;;3.90;99.90;;;;;;5012896;23;20019;-76
2021/12/06 04:25:56;;;;;;;91.30;43.42;;;4.10;99.90;;;;;;5008824;23;20014;-75
2021/12/06 04:28:03;;;;;;;96.88;42.50;;;4.10;99.90;;;;;;5010935;23;20019;-75
2021/12/06 04:30:07;;;;;;;97.88;41.63;;;4.10;99.90;;;;;;5014637;23;20021;-76
2021/12/06 04:32:09;;;;;;;92.50;42.63;;;4.00;99.90;;;;;;5014910;23;20058;-76
2021/12/06 04:34:10;;;;;;;92.88;41.90;;;4.00;99.90;;;;;;5015233;23;20538;-76
2021/12/06 04:36:10;;;;;;;96.45;42.72;;;4.00;99.90;;;;;;5012428;23;20420;-75
2021/12/06 04:38:11;;;;;;;94.50;44.22;;;4.00;99.90;;;;;;5014512;23;20026;-75
2021/12/06 04:40:13;;;;;;;101.07;42.30;;;4.00;99.90;;;;;;5014935;23;20070;-76
2021/12/06 04:42:14;;;;;;;95.25;40.25;;;4.00;99.90;;;;;;5015458;23;20019;-76
2021/12/06 04:44:15;;;;;;;110.60;45.45;;;4.00;99.90;;;;;;5014302;23;20427;-75
2021/12/06 04:46:15;;;;;;;110.97;46.35;;;3.90;99.90;;;;;;5014995;23;20019;-75
2021/12/06 04:48:16;;;;;;;105.45;43.30;;;3.90;99.90;;;;;;5014445;23;20377;-75
2021/12/06 04:50:18;;;;;;;108.68;46.22;;;3.80;99.90;;;;;;5014838;23;20015;-75
2021/12/06 04:52:19;;;;;;;122.82;48.17;;;3.80;99.90;;;;;;5012333;23;20015;-75
2021/12/06 04:54:24;;;;;;;116.57;48.10;;;3.80;99.90;;;;;;5014666;23;20106;-74
2021/12/06 04:56:40;;;;;;;121.78;48.03;;;3.80;99.90;;;;;;5014754;23;20014;-76
2021/12/06 04:59:13;;;;;;;105.78;46.63;;;3.80;99.90;;;;;;5014523;23;20401;-76
2021/12/06 05:01:19;;;;;;;114.57;44.72;;;3.80;99.90;;;;;;5009251;23;20083;-76
2021/12/06 05:03:20;;;;;;;120.40;48.38;;;3.80;99.90;;;;;;5014337;23;20015;-76
2021/12/06 05:05:48;;;;;;;112.13;46.72;;;3.80;99.90;;;;;;5014837;23;20126;-76
2021/12/06 05:07:53;;;;;;;110.72;45.67;;;3.70;99.90;;;;;;5012468;23;20023;-75
2021/12/06 05:09:55;;;;;;;105.82;45.97;;;3.70;99.90;;;;;;5013237;23;20011;-76
2021/12/06 05:11:57;;;;;;;114.75;47.20;;;3.70;99.90;;;;;;5013938;23;20308;-76
2021/12/06 05:14:01;;;;;;;122.00;48.83;;;3.70;99.90;;;;;;5011427;23;20011;-75
2021/12/06 05:16:02;;;;;;;125.93;49.47;;;3.70;99.90;;;;;;5013912;23;20019;-76
2021/12/06 05:18:04;;;;;;;127.80;48.30;;;3.60;99.90;;;;;;5014455;23;20023;-76
2021/12/06 05:20:05;;;;;;;118.55;47.63;;;3.60;99.90;;;;;;5014635;23;20041;-75
2021/12/06 05:22:06;;;;;;;116.88;44.63;;;3.60;99.90;;;;;;5014034;23;20014;-76
2021/12/06 05:24:07;;;;;;;121.93;45.17;;;3.60;99.90;;;;;;5014935;23;20046;-76
2021/12/06 05:26:08;;;;;;;118.18;46.35;;;3.50;99.90;;;;;;5014362;23;20464;-76
2021/12/06 05:28:09;;;;;;;121.28;48.00;;;3.60;99.90;;;;;;5014628;23;20019;-75
2021/12/06 05:30:11;;;;;;;112.60;45.10;;;3.50;99.90;;;;;;5012580;23;20022;-76
2021/12/06 05:32:12;;;;;;;126.90;49.63;;;3.50;99.90;;;;;;5014961;23;20019;-75
2021/12/06 05:34:17;;;;;;;126.78;47.03;;;3.50;99.90;;;;;;5013895;23;20025;-76
2021/12/06 05:36:18;;;;;;;130.15;49.33;;;3.50;99.90;;;;;;5013231;23;20022;-76
2021/12/06 05:38:19;;;;;;;127.97;49.95;;;3.60;99.90;;;;;;5011437;23;20430;-74
2021/12/06 05:40:32;;;;;;;133.65;51.13;;;3.60;99.90;;;;;;5013265;23;20027;-77
2021/12/06 05:42:33;;;;;;;125.35;49.88;;;3.60;99.90;;;;;;5014832;23;20397;-77
2021/12/06 05:44:35;;;;;;;139.35;54.60;;;3.60;99.90;;;;;;5014245;23;20019;-75
2021/12/06 05:46:36;;;;;;;129.95;51.88;;;3.60;99.90;;;;;;5015849;23;20443;-76
2021/12/06 05:48:36;;;;;;;150.20;52.58;;;3.50;99.90;;;;;;5013890;23;20118;-75
2021/12/06 05:50:37;;;;;;;144.35;52.28;;;3.50;99.90;;;;;;5014405;23;20400;-77
2021/12/06 05:52:38;;;;;;;154.63;52.88;;;3.50;99.90;;;;;;5015840;23;20022;-76
2021/12/06 05:54:39;;;;;;;149.27;55.75;;;3.40;99.90;;;;;;5013954;23;20018;-75
2021/12/06 05:56:40;;;;;;;153.65;54.05;;;3.40;99.90;;;;;;5015541;23;20447;-76
2021/12/06 05:58:41;;;;;;;143.20;50.30;;;3.40;99.90;;;;;;5015545;23;20081;-75
2021/12/06 06:00:42;;;;;;;147.27;55.03;;;3.30;99.90;;;;;;5015660;23;20076;-75
2021/12/06 06:02:46;;;;;;;141.68;50.80;;;3.20;99.90;;;;;;5015624;23;20034;-75
2021/12/06 06:04:46;;;;;;;146.80;51.22;;;3.10;99.90;;;;;;5015581;23;20011;-75
2021/12/06 06:06:49;;;;;;;150.70;49.97;;;3.00;99.90;;;;;;5016086;23;20270;-77
2021/12/06 06:08:49;;;;;;;142.38;51.67;;;2.80;99.90;;;;;;5015572;23;20019;-75
2021/12/06 06:10:51;;;;;;;149.52;54.42;;;2.70;99.90;;;;;;5016014;23;20026;-75
2021/12/06 06:12:51;;;;;;;160.10;52.50;;;2.70;99.90;;;;;;5014482;23;20026;-76
2021/12/06 06:14:53;;;;;;;157.18;53.47;;;2.60;99.90;;;;;;5013452;23;20019;-75
2021/12/06 06:16:54;;;;;;;169.40;53.33;;;2.50;99.90;;;;;;5013380;23;20014;-75
2021/12/06 06:18:54;;;;;;;171.40;52.45;;;2.50;99.90;;;;;;5015442;23;20464;-75
2021/12/06 06:20:56;;;;;;;168.05;52.35;;;2.50;99.90;;;;;;5017367;23;20014;-75
2021/12/06 06:22:57;;;;;;;167.40;56.38;;;2.60;99.90;;;;;;5015210;23;20446;-75
2021/12/06 06:24:58;;;;;;;167.07;56.00;;;2.70;99.90;;;;;;5012954;23;20097;-75
2021/12/06 06:26:59;;;;;;;173.27;56.63;;;2.90;99.90;;;;;;5012302;23;20373;-75
2021/12/06 06:29:00;;;;;;;180.73;56.80;;;3.00;99.90;;;;;;5005867;23;20071;-76
2021/12/06 06:31:01;;;;;;;178.60;54.15;;;3.10;99.90;;;;;;5016264;23;20014;-75
2021/12/06 06:33:02;;;;;;;183.15;56.80;;;3.10;99.90;;;;;;5014721;23;20038;-75
2021/12/06 06:35:05;;;;;;;170.65;56.58;;;3.20;99.90;;;;;;5015713;23;20018;-75
2021/12/06 06:37:05;;;;;;;183.17;57.60;;;3.20;99.90;;;;;;5013955;23;20066;-75
2021/12/06 06:39:08;;;;;;;174.60;56.30;;;3.30;99.90;;;;;;5012612;23;20251;-75
2021/12/06 06:41:09;;;;;;;185.95;62.75;;;3.30;99.90;;;;;;5013590;23;20007;-75
2021/12/06 06:43:10;;;;;;;178.73;61.92;;;3.40;99.90;;;;;;5012845;23;20348;-75
2021/12/06 06:45:14;;;;;;;182.85;61.55;;;3.40;99.90;;;;;;5014214;23;20396;-75
2021/12/06 06:47:15;;;;;;;179.50;60.05;;;3.40;99.90;;;;;;5014836;23;20023;-75
2021/12/06 06:49:18;;;;;;;172.30;57.88;;;3.50;99.90;;;;;;5014862;23;20035;-75
2021/12/06 06:51:18;;;;;;;180.18;60.28;;;3.50;99.90;;;;;;5015052;23;20025;-75
2021/12/06 06:53:19;;;;;;;179.88;61.38;;;3.50;99.90;;;;;;5014316;23;20011;-75
2021/12/06 06:55:21;;;;;;;173.40;57.67;;;3.50;99.90;;;;;;5015167;23;20467;-75
2021/12/06 06:57:21;;;;;;;167.57;57.10;;;3.50;99.90;;;;;;5013706;23;20403;-75
2021/12/06 06:59:22;;;;;;;174.68;57.75;;;3.50;99.90;;;;;;5015384;23;20081;-76
2021/12/06 07:01:23;;;;;;;160.55;56.22;;;3.50;99.90;;;;;;5015683;23;20468;-76
2021/12/06 07:03:24;;;;;;;165.82;59.33;;;3.50;99.90;;;;;;5015427;23;20099;-76
2021/12/06 07:05:26;;;;;;;167.70;58.60;;;3.60;99.90;;;;;;5015695;23;20019;-76
2021/12/06 07:07:26;;;;;;;166.68;58.55;;;3.60;99.90;;;;;;5015296;23;20042;-76
2021/12/06 07:09:27;;;;;;;160.15;55.30;;;3.60;99.90;;;;;;5015369;23;20022;-75
2021/12/06 07:11:28;;;;;;;166.05;57.08;;;3.60;99.90;;;;;;5012930;23;20019;-76
2021/12/06 07:13:29;;;;;;;155.23;56.08;;;3.60;99.90;;;;;;5013274;23;20121;-76
2021/12/06 07:15:32;;;;;;;152.00;56.03;;;3.50;99.90;;;;;;5011845;23;20019;-75
2021/12/06 07:17:32;;;;;;;159.63;56.42;;;3.50;99.90;;;;;;5014525;23;20391;-76
2021/12/06 07:19:33;;;;;;;159.38;59.90;;;3.50;99.90;;;;;;5012858;23;20018;-76
2021/12/06 07:21:35;;;;;;;150.00;54.70;;;3.40;99.90;;;;;;5010544;23;20015;-75
2021/12/06 07:23:38;;;;;;;158.63;56.63;;;3.40;99.90;;;;;;5005620;23;20487;-75
2021/12/06 07:25:40;;;;;;;166.73;57.67;;;3.40;99.90;;;;;;5014813;23;20053;-76
2021/12/06 07:27:41;;;;;;;157.55;58.17;;;3.40;99.90;;;;;;5013554;23;20081;-76
2021/12/06 07:29:41;;;;;;;146.55;56.90;;;3.40;99.90;;;;;;5013767;23;20018;-76
2021/12/06 07:31:43;;;;;;;146.48;56.88;;;3.40;99.90;;;;;;5012135;23;20019;-76
2021/12/06 07:33:47;;;;;;;132.27;48.65;;;3.40;99.90;;;;;;5014306;23;20042;-77
2021/12/06 07:35:48;;;;;;;135.60;53.85;;;3.40;99.90;;;;;;5014035;23;20015;-76
2021/12/06 07:37:49;;;;;;;131.57;51.00;;;3.50;99.90;;;;;;5014329;23;20029;-77
2021/12/06 07:39:49;;;;;;;153.52;53.35;;;3.50;99.90;;;;;;5014414;23;20026;-76
2021/12/06 07:41:51;;;;;;;140.70;54.10;;;3.50;99.90;;;;;;5013971;23;20704;-76
2021/12/06 07:43:51;;;;;;;145.13;56.50;;;3.40;99.90;;;;;;5013450;23;20026;-76
2021/12/06 07:45:52;;;;;;;145.55;53.95;;;3.40;99.90;;;;;;5010606;23;20712;-76
2021/12/06 07:47:52;;;;;;;137.82;53.30;;;3.40;99.90;;;;;;5012987;23;20038;-75
2021/12/06 07:49:53;;;;;;;133.10;53.70;;;3.40;99.90;;;;;;5014465;23;20047;-75
2021/12/06 07:51:54;;;;;;;151.20;55.92;;;3.40;99.90;;;;;;5013653;23;20045;-76
2021/12/06 07:53:57;;;;;;;148.77;57.40;;;3.30;99.90;;;;;;5004020;23;20042;-76
2021/12/06 07:55:58;;;;;;;137.23;57.30;;;3.30;99.90;;;;;;5004134;23;20015;-74
2021/12/06 07:57:59;;;;;;;137.95;56.33;;;3.30;99.90;;;;;;5005541;23;20113;-75
2021/12/06 08:00:00;;;;;;;132.30;55.13;;;3.30;99.90;;;;;;5004557;23;20022;-77
2021/12/06 08:02:03;;;;;;;138.27;54.50;;;3.30;99.90;;;;;;5004358;23;20031;-75
2021/12/06 08:04:04;;;;;;;132.02;53.30;;;3.30;99.90;;;;;;5005921;23;20015;-74
2021/12/06 08:06:05;;;;;;;133.63;54.20;;;3.40;99.90;;;;;;5003453;23;20654;-74
2021/12/06 08:08:13;;;;;;;125.28;53.88;;;3.30;99.90;;;;;;5006288;23;20014;-74
2021/12/06 08:10:14;;;;;;;120.65;53.75;;;3.40;99.90;;;;;;5005145;23;20459;-75
2021/12/06 08:12:15;;;;;;;133.68;52.88;;;3.40;99.90;;;;;;5005685;23;20014;-75
2021/12/06 08:14:16;;;;;;;114.82;51.83;;;3.40;99.90;;;;;;5003405;23;20315;-74
2021/12/06 08:16:19;;;;;;;125.78;52.33;;;3.50;99.90;;;;;;5004409;23;20114;-74
2021/12/06 08:18:22;;;;;;;132.35;53.42;;;3.50;99.90;;;;;;5005619;23;20053;-75
2021/12/06 08:20:23;;;;;;;118.65;52.17;;;3.50;99.90;;;;;;5005494;23;20440;-76
2021/12/06 08:22:24;;;;;;;119.55;49.30;;;3.50;99.90;;;;;;5005517;23;20019;-76
2021/12/06 08:24:25;;;;;;;123.22;52.72;;;3.50;99.90;;;;;;5005124;23;20037;-75
2021/12/06 08:26:29;;;;;;;114.85;52.58;;;3.50;99.90;;;;;;5006044;23;20042;-76
2021/12/06 08:28:31;;;;;;;110.13;50.53;;;3.60;99.90;;;;;;5005319;23;20131;-76
2021/12/06 08:30:34;;;;;;;110.65;46.67;;;3.60;99.90;;;;;;5003496;23;20065;-76
2021/12/06 08:32:35;;;;;;;110.63;48.00;;;3.60;99.90;;;;;;5006107;23;20352;-76
2021/12/06 08:34:35;;;;;;;106.70;46.70;;;3.60;99.90;;;;;;5005760;23;20015;-76
2021/12/06 08:36:36;;;;;;;107.82;49.03;;;3.60;99.90;;;;;;5003239;23;20107;-75
2021/12/06 08:38:38;;;;;;;115.03;51.78;;;3.50;99.90;;;;;;5005332;23;20089;-75
2021/12/06 08:40:42;;;;;;;109.03;48.72;;;3.50;99.90;;;;;;5004793;23;20075;-74
2021/12/06 08:42:43;;;;;;;102.47;47.35;;;3.60;99.90;;;;;;5003856;23;20027;-75
2021/12/06 08:44:44;;;;;;;107.32;48.63;;;3.60;99.90;;;;;;5008476;23;20534;-75
2021/12/06 08:46:44;;;;;;;98.40;47.78;;;3.50;99.90;;;;;;5014711;23;20099;-76
2021/12/06 08:48:46;;;;;;;103.18;43.42;;;3.60;99.90;;;;;;5013934;23;20332;-75
2021/12/06 08:50:46;;;;;;;101.50;47.78;;;3.60;99.90;;;;;;5014206;23;20015;-75
2021/12/06 08:52:47;;;;;;;90.40;43.63;;;3.50;99.90;;;;;;5013048;23;20015;-75
2021/12/06 08:54:49;;;;;;;98.55;44.80;;;3.50;99.90;;;;;;5012998;23;20093;-75
2021/12/06 08:56:50;;;;;;;75.72;39.20;;;3.50;99.90;;;;;;5012073;23;20094;-75
2021/12/06 08:58:51;;;;;;;86.80;41.63;;;3.50;99.90;;;;;;5012265;23;20022;-74
2021/12/06 09:00:53;;;;;;;81.03;40.35;;;3.50;99.90;;;;;;5011198;23;20018;-75
2021/12/06 09:02:54;;;;;;;75.80;38.70;;;3.40;99.90;;;;;;5013169;23;20014;-75
2021/12/06 09:04:55;;;;;;;92.82;41.88;;;3.40;99.90;;;;;;5014136;23;20102;-75
2021/12/06 09:06:58;;;;;;;90.15;42.67;;;3.40;99.90;;;;;;5014316;23;20019;-76
2021/12/06 09:09:00;;;;;;;110.28;47.67;;;3.30;99.90;;;;;;5013326;23;20011;-78
2021/12/06 09:11:01;;;;;;;96.57;44.50;;;3.30;99.90;;;;;;5013440;23;20019;-79
2021/12/06 09:13:02;;;;;;;98.88;45.25;;;3.40;99.90;;;;;;5008136;23;20404;-78
2021/12/06 09:15:08;;;;;;;80.68;41.08;;;3.40;99.90;;;;;;4884636;23;20419;-79
2021/12/06 09:17:08;;;;;;;77.68;38.25;;;3.60;99.90;;;;;;4991385;23;20015;-79
2021/12/06 09:19:11;;;;;;;86.93;42.90;;;3.50;99.90;;;;;;4992140;23;20321;-78
2021/12/06 09:21:17;;;;;;;85.72;43.70;;;3.50;99.90;;;;;;4992240;23;20011;-78
2021/12/06 09:23:18;;;;;;;92.60;42.60;;;3.40;99.90;;;;;;4992074;23;20084;-79
2021/12/06 09:25:21;;;;;;;89.03;42.80;;;3.40;99.90;;;;;;4992481;23;20067;-80
2021/12/06 09:27:23;;;;;;;90.55;41.10;;;3.40;99.90;;;;;;4991565;23;20332;-80
2021/12/06 09:29:24;;;;;;;108.57;46.33;;;3.40;99.90;;;;;;4992516;23;20007;-79
2021/12/06 09:31:25;;;;;;;90.20;43.58;;;3.30;99.90;;;;;;4991111;23;20012;-78
2021/12/06 09:33:27;;;;;;;88.30;43.28;;;3.30;99.90;;;;;;4992225;23;20112;-79
2021/12/06 09:35:29;;;;;;;89.97;41.55;;;3.30;99.90;;;;;;4991739;23;20731;-79
2021/12/06 09:37:31;;;;;;;76.50;41.53;;;3.30;99.90;;;;;;4990373;23;20021;-78
2021/12/06 09:39:32;;;;;;;68.20;39.30;;;3.40;99.90;;;;;;4991826;23;20508;-79
2021/12/06 09:41:33;;;;;;;61.65;35.78;;;3.40;99.90;;;;;;4990388;23;20019;-79
2021/12/06 09:43:38;;;;;;;56.13;32.20;;;3.50;99.90;;;;;;4991420;23;20049;-78
2021/12/06 09:45:40;;;;;;;62.60;33.88;;;3.50;99.90;;;;;;4992001;23;20071;-81
2021/12/06 09:47:49;;;;;;;61.83;36.92;;;3.50;99.90;;;;;;4989480;23;20427;-79
2021/12/06 09:49:50;;;;;;;52.53;30.23;;;3.40;99.90;;;;;;4990893;23;20049;-77
2021/12/06 09:51:57;;;;;;;56.38;33.85;;;3.40;99.90;;;;;;4991569;23;20132;-79
2021/12/06 09:53:59;;;;;;;54.22;34.83;;;3.40;99.90;;;;;;4988426;23;20015;-79
2021/12/06 09:56:04;;;;;;;54.33;33.33;;;3.40;99.90;;;;;;4990175;23;20015;-78
2021/12/06 09:58:06;;;;;;;57.28;33.30;;;3.30;99.90;;;;;;4991276;23;20368;-80
2021/12/06 10:00:11;;;;;;;62.90;32.92;;;3.30;99.90;;;;;;4991425;23;20015;-79
2021/12/06 10:02:16;;;;;;;62.28;33.70;;;3.20;99.90;;;;;;5013167;23;20050;-79
2021/12/06 10:04:23;;;;;;;72.38;34.03;;;3.20;99.90;;;;;;4992249;23;20297;-78
2021/12/06 10:06:26;;;;;;;70.68;35.05;;;3.20;99.90;;;;;;5013282;23;20023;-79
2021/12/06 10:08:28;;;;;;;;;;;3.10;99.90;;;;;;4990081;23;20023;-79
2021/12/06 10:10:30;;;;;;;58.10;34.28;;;3.10;99.90;;;;;;4991124;23;20011;-80
2021/12/06 10:12:31;;;;;;;58.25;33.42;;;3.10;99.90;;;;;;4989628;23;20019;-79
2021/12/06 10:14:33;;;;;;;61.25;33.63;;;3.10;99.90;;;;;;4990978;23;20019;-80
2021/12/06 10:16:34;;;;;;;70.75;37.60;;;3.10;99.90;;;;;;4991172;23;20019;-79
2021/12/06 10:18:37;;;;;;;72.72;37.97;;;3.10;99.90;;;;;;4991345;23;20011;-79
2021/12/06 10:20:38;;;;;;;62.10;34.72;;;3.20;99.90;;;;;;4989532;23;20012;-79
2021/12/06 10:22:39;;;;;;;85.70;37.67;;;3.20;99.90;;;;;;5013873;23;20014;-80
2021/12/06 10:24:41;;;;;;;89.65;38.22;;;3.20;99.90;;;;;;4989405;23;20412;-79
2021/12/06 10:26:42;;;;;;;79.93;37.15;;;3.30;99.90;;;;;;4991754;23;20014;-80
2021/12/06 10:28:44;;;;;;;74.57;35.25;;;3.30;99.90;;;;;;4990814;23;20351;-79
2021/12/06 10:30:54;;;;;;;81.78;37.72;;;3.30;99.90;;;;;;5014040;23;20007;-80
2021/12/06 10:33:11;;;;;;;77.72;35.40;;;3.30;99.90;;;;;;4989585;23;20716;-79
2021/12/06 10:35:14;;;;;;;78.65;35.95;;;3.30;99.90;;;;;;4990992;23;20111;-79
2021/12/06 10:37:33;;;;;;;;;;;3.40;99.90;;;;;;4990065;23;20019;-78